Time;durP1;ratioP1;P1;durP2;ratioP2;P2;SDS_P1;SDS_P2;PMS_P1;PMS_P2;Temp;Humidity;BMP_temperature;BMP_pressure;BME280_temperature;BME280_humidity;BME280_pressure;Samples;Min_cycle;Max_cycle;Signal;HPM_P1;HPM_P2
2023/06/09 00:01:35;;;;;;;12.60;4.60;;;;;;;18.63;78.22;101042.50;5036607;28;20447;-70
2023/06/09 00:04:02;;;;;;;13.70;4.17;;;;;;;18.61;77.91;101048.34;5036280;28;20447;-70
2023/06/09 00:06:30;;;;;;;9.73;3.00;;;;;;;18.53;78.66;101045.72;5036447;28;20465;-70
2023/06/09 00:08:58;;;;;;;8.40;4.10;;;;;;;18.57;78.57;101052.13;5036402;28;20558;-71
2023/06/09 00:11:26;;;;;;;9.40;4.10;;;;;;;18.57;78.08;101052.91;5036402;28;20439;-70
2023/06/09 00:13:53;;;;;;;8.50;4.13;;;;;;;18.53;78.27;101046.50;5036027;28;20454;-71
2023/06/09 00:16:21;;;;;;;9.77;4.53;;;;;;;18.50;78.15;101058.16;5036332;28;20451;-70
2023/06/09 00:18:47;;;;;;;8.33;3.90;;;;;;;18.44;78.42;101058.75;5035927;28;20470;-70
2023/06/09 00:21:18;;;;;;;13.37;4.60;;;;;;;18.40;78.26;101048.44;5036233;28;20478;-70
2023/06/09 00:23:45;;;;;;;14.77;4.90;;;;;;;18.35;79.36;101050.63;5036161;28;20442;-71
2023/06/09 00:26:11;;;;;;;12.97;5.00;;;;;;;18.23;79.80;101054.16;5035790;28;20439;-70
2023/06/09 00:28:40;;;;;;;9.27;5.10;;;;;;;18.24;79.79;101049.47;5035970;28;20490;-69
2023/06/09 00:31:06;;;;;;;10.33;4.63;;;;;;;18.21;80.24;101053.72;5036105;28;20479;-69
2023/06/09 00:33:33;;;;;;;12.50;5.37;;;;;;;18.19;80.51;101042.25;5035693;28;20999;-69
2023/06/09 00:35:59;;;;;;;9.63;4.80;;;;;;;18.14;80.94;101051.50;5035862;28;20457;-70
2023/06/09 00:38:26;;;;;;;10.97;4.30;;;;;;;18.11;81.03;101045.94;5035578;28;20498;-69
2023/06/09 00:40:53;;;;;;;16.37;5.80;;;;;;;18.01;81.07;101047.16;5035529;28;20920;-69
2023/06/09 00:43:20;;;;;;;9.03;4.37;;;;;;;17.90;81.34;101048.75;5035469;28;20474;-70
2023/06/09 00:45:48;;;;;;;9.40;4.17;;;;;;;17.84;81.76;101041.84;5035691;28;20527;-71
2023/06/09 00:48:14;;;;;;;9.20;4.30;;;;;;;17.78;82.12;101048.69;5035602;28;20586;-69
2023/06/09 00:50:41;;;;;;;9.30;4.43;;;;;;;17.83;82.48;101043.81;5035432;28;20449;-70
2023/06/09 00:53:09;;;;;;;8.00;4.10;;;;;;;17.77;82.18;101039.69;5035780;28;20439;-70
2023/06/09 00:55:39;;;;;;;8.10;3.93;;;;;;;17.77;81.82;101045.16;5034783;28;20436;-67
2023/06/09 00:58:07;;;;;;;12.23;3.70;;;;;;;17.71;82.21;101041.03;5035252;28;20533;-68
2023/06/09 01:00:35;;;;;;;11.43;4.90;;;;;;;17.72;81.66;101050.84;5035212;28;20888;-70
2023/06/09 01:03:03;;;;;;;12.70;5.67;;;;;;;17.59;82.51;101040.97;5035487;28;20454;-69
2023/06/09 01:05:32;;;;;;;7.70;3.97;;;;;;;17.61;82.11;101050.44;5035454;28;20449;-69
2023/06/09 01:08:07;;;;;;;11.73;4.10;;;;;;;17.58;82.05;101050.34;5035235;28;20562;-69
2023/06/09 01:10:42;;;;;;;11.73;5.70;;;;;;;17.52;82.27;101049.72;5035459;28;20434;-69
2023/06/09 01:13:17;;;;;;;11.00;4.97;;;;;;;17.31;83.75;101057.97;5035425;28;20435;-69
2023/06/09 01:15:48;;;;;;;9.50;4.23;;;;;;;17.35;83.92;101058.09;5035288;28;20427;-71
2023/06/09 01:18:17;;;;;;;8.50;4.30;;;;;;;17.43;83.62;101059.16;5035132;28;20467;-69
2023/06/09 01:20:49;;;;;;;9.00;4.60;;;;;;;17.42;84.16;101058.34;5035137;28;20847;-71
2023/06/09 01:23:26;;;;;;;10.70;3.90;;;;;;;17.35;84.47;101058.91;5034828;28;20467;-70
2023/06/09 01:25:55;;;;;;;9.20;4.60;;;;;;;17.35;84.04;101053.44;5034750;28;20433;-71
2023/06/09 01:28:23;;;;;;;8.60;4.77;;;;;;;17.27;84.71;101054.31;5034806;28;20522;-69
2023/06/09 01:30:52;;;;;;;11.10;4.37;;;;;;;17.29;84.47;101048.47;5034642;28;20455;-69
2023/06/09 01:33:21;;;;;;;13.23;4.70;;;;;;;17.19;85.47;101048.91;5034967;28;20447;-70
2023/06/09 01:35:49;;;;;;;11.80;5.00;;;;;;;17.21;85.01;101052.09;5034886;28;20443;-70
2023/06/09 01:38:17;;;;;;;10.40;4.63;;;;;;;17.23;85.13;101047.09;5034455;28;20505;-70
2023/06/09 01:40:44;;;;;;;10.60;4.70;;;;;;;17.14;85.44;101047.16;5034452;28;20467;-70
2023/06/09 01:43:12;;;;;;;9.13;4.50;;;;;;;17.14;85.16;101041.69;5034441;28;20537;-70
2023/06/09 01:45:39;;;;;;;13.57;5.13;;;;;;;17.09;85.44;101045.44;5034822;28;20447;-68
2023/06/09 01:48:16;;;;;;;10.87;4.60;;;;;;;17.14;85.48;101053.44;5034204;28;20928;-69
2023/06/09 01:50:49;;;;;;;8.87;4.23;;;;;;;17.11;85.56;101048.63;5034299;28;20901;-68
2023/06/09 01:53:19;;;;;;;10.53;5.07;;;;;;;16.87;87.03;101052.03;5034565;28;20515;-69
2023/06/09 01:55:51;;;;;;;9.93;4.50;;;;;;;16.85;86.92;101051.53;5034586;28;20463;-69
2023/06/09 01:58:24;;;;;;;13.27;6.30;;;;;;;16.75;87.57;101046.47;5034027;28;20861;-69
2023/06/09 02:00:53;;;;;;;8.73;4.17;;;;;;;16.82;86.48;101046.75;5034140;28;20428;-70
2023/06/09 02:03:21;;;;;;;9.93;4.80;;;;;;;16.78;86.66;101047.75;5034139;28;20435;-70
2023/06/09 02:05:50;;;;;;;10.13;4.87;;;;;;;16.64;87.62;101045.19;5034030;28;20971;-70
2023/06/09 02:08:17;;;;;;;11.17;4.40;;;;;;;16.71;86.90;101042.75;5034118;28;20494;-70
2023/06/09 02:10:44;;;;;;;10.90;5.53;;;;;;;16.67;87.25;101039.06;5033961;28;20458;-71
2023/06/09 02:13:13;;;;;;;12.20;5.00;;;;;;;16.67;86.88;101050.00;5033880;28;20471;-70
2023/06/09 02:15:43;;;;;;;12.10;5.23;;;;;;;16.67;87.30;101033.59;5033819;28;20936;-71
2023/06/09 02:18:11;;;;;;;11.37;5.03;;;;;;;16.71;86.52;101040.00;5033996;28;20459;-70
2023/06/09 02:20:38;;;;;;;13.73;4.80;;;;;;;16.58;87.41;101038.31;5033957;28;21012;-69
2023/06/09 02:23:05;;;;;;;11.23;4.70;;;;;;;16.48;88.19;101042.22;5033697;28;20490;-69
2023/06/09 02:25:33;;;;;;;10.87;5.17;;;;;;;16.52;87.76;101047.84;5034002;28;20444;-69
2023/06/09 02:27:59;;;;;;;11.77;4.80;;;;;;;16.38;88.71;101040.69;5033704;28;20513;-69
2023/06/09 02:30:26;;;;;;;10.37;5.30;;;;;;;16.52;87.58;101043.19;5033614;28;20474;-70
2023/06/09 02:32:55;;;;;;;11.13;5.57;;;;;;;16.46;87.42;101047.22;5033533;28;21052;-70
2023/06/09 02:35:21;;;;;;;10.30;5.40;;;;;;;16.32;88.63;101050.19;5033758;28;20449;-69
2023/06/09 02:37:48;;;;;;;12.10;5.10;;;;;;;16.25;89.56;101044.44;5033588;28;20839;-70
2023/06/09 02:40:14;;;;;;;11.07;4.87;;;;;;;16.33;88.29;101051.78;5033505;28;20803;-69
2023/06/09 02:42:41;;;;;;;9.77;4.90;;;;;;;16.26;89.00;101046.03;5033698;28;20447;-71
2023/06/09 02:45:09;;;;;;;15.60;5.03;;;;;;;16.22;89.35;101050.56;5033353;28;20532;-69
2023/06/09 02:47:36;;;;;;;11.17;4.83;;;;;;;16.27;89.15;101052.31;5033191;28;20463;-69
2023/06/09 02:50:05;;;;;;;13.57;4.63;;;;;;;16.25;89.90;101049.09;5033222;28;20471;-70
2023/06/09 02:52:32;;;;;;;9.80;4.57;;;;;;;16.29;89.45;101055.50;5033738;28;20447;-70
2023/06/09 02:54:59;;;;;;;9.40;4.73;;;;;;;16.29;89.42;101048.13;5033514;28;20447;-69
2023/06/09 02:57:27;;;;;;;12.00;5.87;;;;;;;16.29;90.05;101058.22;5033112;28;20918;-69
2023/06/09 02:59:54;;;;;;;10.60;4.80;;;;;;;16.28;89.73;101051.16;5033393;28;20434;-70
2023/06/09 03:02:21;;;;;;;17.30;5.97;;;;;;;16.24;89.58;101058.41;5033343;28;20541;-70
2023/06/09 03:04:48;;;;;;;10.10;4.50;;;;;;;16.29;89.80;101063.69;5033269;28;20534;-70
2023/06/09 03:07:16;;;;;;;12.23;4.50;;;;;;;16.28;89.49;101062.91;5033283;28;20471;-69
2023/06/09 03:09:43;;;;;;;9.60;4.47;;;;;;;16.30;89.41;101055.19;5033667;28;20489;-71
2023/06/09 03:12:10;;;;;;;10.20;5.50;;;;;;;16.29;89.85;101056.31;5033453;28;20427;-70
2023/06/09 03:14:37;;;;;;;8.77;4.70;;;;;;;16.27;89.99;101058.56;5033036;28;20943;-70
2023/06/09 03:17:05;;;;;;;13.40;6.00;;;;;;;16.24;90.45;101056.47;5033293;28;20449;-70
2023/06/09 03:19:31;;;;;;;11.60;4.83;;;;;;;16.28;90.10;101059.38;5036231;28;20534;-69
2023/06/09 03:21:58;;;;;;;11.80;5.10;;;;;;;16.28;90.35;101060.16;5039997;28;20792;-71
2023/06/09 03:24:26;;;;;;;11.10;5.53;;;;;;;16.24;90.51;101059.22;5039863;28;21028;-70
2023/06/09 03:26:53;;;;;;;11.10;5.57;;;;;;;16.24;90.53;101070.16;5040213;28;20450;-71
2023/06/09 03:29:20;;;;;;;13.43;5.73;;;;;;;16.27;91.40;101061.28;5039842;28;20491;-70
2023/06/09 03:31:46;;;;;;;9.50;5.47;;;;;;;16.21;91.50;101065.34;5039760;28;20521;-71
2023/06/09 03:34:13;;;;;;;9.20;3.83;;;;;;;16.27;91.71;101063.22;5040142;28;20446;-70
2023/06/09 03:36:39;;;;;;;11.53;5.23;;;;;;;16.36;91.39;101067.53;5039906;28;20453;-70
2023/06/09 03:39:06;;;;;;;12.07;5.50;;;;;;;16.35;91.71;101065.94;5039623;28;20462;-70
2023/06/09 03:41:34;;;;;;;9.30;4.90;;;;;;;16.36;91.73;101073.00;5039429;28;20832;-69
2023/06/09 03:44:01;;;;;;;10.00;4.73;;;;;;;16.41;91.50;101063.81;5039774;28;20481;-71
2023/06/09 03:46:27;;;;;;;10.50;5.43;;;;;;;16.36;92.55;101067.53;5039721;28;20522;-71
2023/06/09 03:48:54;;;;;;;9.47;4.73;;;;;;;16.53;92.30;101066.66;5039197;28;21003;-71
2023/06/09 03:51:20;;;;;;;13.97;6.20;;;;;;;16.58;92.96;101071.13;5039451;28;20534;-71
2023/06/09 03:53:47;;;;;;;10.20;4.60;;;;;;;16.61;94.13;101076.75;5039619;28;20445;-70
2023/06/09 03:56:14;;;;;;;12.17;5.40;;;;;;;16.61;94.29;101084.16;5039577;28;20493;-69
2023/06/09 03:58:42;;;;;;;9.90;5.07;;;;;;;16.63;94.84;101076.41;5039307;28;20479;-70
2023/06/09 04:01:10;;;;;;;10.37;4.70;;;;;;;16.67;95.77;101082.84;5039328;28;20534;-69
2023/06/09 04:03:37;;;;;;;8.60;3.97;;;;;;;16.64;95.97;101078.00;5039564;28;20442;-69
2023/06/09 04:06:03;;;;;;;10.70;6.17;;;;;;;16.62;97.13;101081.09;5039461;28;20457;-69
2023/06/09 04:08:30;;;;;;;10.07;4.60;;;;;;;16.63;98.01;101073.69;5039383;28;20540;-70
2023/06/09 04:10:57;;;;;;;9.40;4.20;;;;;;;16.64;98.98;101075.28;5039446;28;20495;-67
2023/06/09 04:13:23;;;;;;;15.40;5.37;;;;;;;16.65;99.10;101074.16;5039145;28;20482;-70
2023/06/09 04:15:51;;;;;;;9.70;4.57;;;;;;;16.64;99.86;101072.53;5039075;28;20818;-69
2023/06/09 04:18:19;;;;;;;11.70;4.50;;;;;;;16.62;99.89;101072.88;5039277;28;20864;-69
2023/06/09 04:20:45;;;;;;;12.63;5.53;;;;;;;16.61;100.00;101074.03;5038969;28;21000;-70
2023/06/09 04:23:12;;;;;;;11.60;5.83;;;;;;;16.61;100.00;101067.75;5039294;28;20442;-69
2023/06/09 04:25:39;;;;;;;13.37;4.87;;;;;;;16.61;100.00;101065.03;5039028;28;20478;-69
2023/06/09 04:28:08;;;;;;;10.60;4.90;;;;;;;16.64;100.00;101062.44;5038799;28;20976;-69
2023/06/09 04:30:35;;;;;;;11.90;4.70;;;;;;;16.64;100.00;101070.63;5036963;28;20447;-69
2023/06/09 04:33:04;;;;;;;11.10;4.77;;;;;;;16.62;97.81;101059.22;5036016;28;20505;-68
2023/06/09 04:35:32;;;;;;;9.87;4.10;;;;;;;16.69;97.00;101058.69;5035788;28;20477;-68
2023/06/09 04:37:59;;;;;;;9.90;4.30;;;;;;;16.72;96.23;101069.00;5035659;28;20467;-69
2023/06/09 04:40:28;;;;;;;10.40;3.50;;;;;;;16.79;96.27;101072.03;5035992;28;20439;-69
2023/06/09 04:42:58;;;;;;;14.10;4.70;;;;;;;16.83;96.36;101070.22;5035908;28;20830;-70
2023/06/09 04:45:27;;;;;;;9.03;4.10;;;;;;;16.86;95.96;101063.28;5035862;28;20435;-69
2023/06/09 04:47:57;;;;;;;9.03;3.70;;;;;;;16.86;94.21;101057.81;5035503;28;20475;-70
2023/06/09 04:50:25;;;;;;;11.50;3.83;;;;;;;16.92;93.62;101056.50;5035793;28;20510;-69
2023/06/09 04:52:52;;;;;;;10.53;4.80;;;;;;;16.98;93.26;101063.38;5035399;28;20483;-70
2023/06/09 04:55:18;;;;;;;11.10;4.17;;;;;;;17.03;93.63;101063.16;5035748;28;20501;-68
2023/06/09 04:57:47;;;;;;;11.97;3.10;;;;;;;17.08;92.17;101064.91;5035229;28;20558;-68
2023/06/09 05:00:16;;;;;;;7.33;2.87;;;;;;;17.10;89.92;101068.91;5035491;28;20447;-69
2023/06/09 05:02:44;;;;;;;10.17;3.40;;;;;;;17.20;89.63;101059.50;5035681;28;20478;-67
2023/06/09 05:05:12;;;;;;;10.00;4.10;;;;;;;17.28;89.33;101063.31;5035636;28;20447;-69
2023/06/09 05:07:40;;;;;;;10.90;4.30;;;;;;;17.28;88.10;101066.84;5035340;28;20462;-68
2023/06/09 05:10:08;;;;;;;6.90;2.73;;;;;;;17.35;86.63;101061.66;5035174;28;21097;-67
2023/06/09 05:12:35;;;;;;;7.03;3.47;;;;;;;17.47;86.20;101065.56;5035383;28;20439;-68
2023/06/09 05:15:01;;;;;;;6.90;3.27;;;;;;;17.54;86.57;101060.38;5035317;28;20453;-68
2023/06/09 05:17:28;;;;;;;10.10;4.07;;;;;;;17.61;86.83;101066.06;5034816;28;20506;-68
2023/06/09 05:19:55;;;;;;;7.43;3.13;;;;;;;17.68;86.56;101068.28;5035291;28;20449;-68
2023/06/09 05:22:22;;;;;;;8.87;2.97;;;;;;;17.72;85.52;101067.28;5035132;28;20525;-67
2023/06/09 05:24:49;;;;;;;8.70;3.30;;;;;;;17.80;84.11;101068.38;5035045;28;20438;-69
2023/06/09 05:27:16;;;;;;;7.10;2.83;;;;;;;17.89;83.20;101075.34;5034828;28;21018;-69
2023/06/09 05:29:43;;;;;;;10.57;3.20;;;;;;;17.98;81.96;101074.47;5035032;28;20576;-68
2023/06/09 05:32:09;;;;;;;7.90;3.00;;;;;;;18.09;82.80;101083.84;5034664;28;20534;-68
2023/06/09 05:34:36;;;;;;;8.97;3.43;;;;;;;18.15;81.28;101085.25;5034624;28;21007;-68
2023/06/09 05:37:04;;;;;;;9.73;3.27;;;;;;;18.20;79.31;101087.75;5034795;28;20953;-69
2023/06/09 05:39:30;;;;;;;7.37;2.90;;;;;;;18.29;78.40;101087.66;5034961;28;20898;-67
2023/06/09 05:41:58;;;;;;;9.20;3.37;;;;;;;18.32;76.20;101090.50;5034458;28;20802;-67
2023/06/09 05:44:25;;;;;;;7.43;2.13;;;;;;;18.33;75.53;101086.63;5034735;28;20549;-69
2023/06/09 05:46:51;;;;;;;6.30;2.50;;;;;;;18.31;75.00;101091.66;5034323;28;20489;-70
2023/06/09 05:49:18;;;;;;;7.63;2.57;;;;;;;18.38;73.99;101102.88;5034389;28;20848;-68
2023/06/09 05:51:45;;;;;;;7.70;2.90;;;;;;;18.38;73.46;101091.91;5034539;28;20529;-71
2023/06/09 05:54:11;;;;;;;10.03;3.17;;;;;;;18.41;73.74;101098.63;5034257;28;20960;-70
2023/06/09 05:56:38;;;;;;;8.93;2.57;;;;;;;18.41;73.28;101093.94;5034359;28;20538;-69
2023/06/09 05:59:06;;;;;;;6.40;2.43;;;;;;;18.47;73.51;101085.50;5043006;22;21046;-76
2023/06/09 06:01:34;;;;;;;8.50;2.87;;;;;;;18.54;73.64;101096.69;5013756;28;20453;-76
2023/06/09 06:04:01;;;;;;;8.23;3.00;;;;;;;18.61;72.03;101086.75;5014814;28;20535;-76
2023/06/09 06:06:27;;;;;;;9.93;2.93;;;;;;;18.76;68.42;101089.97;5040165;22;20604;-76
2023/06/09 06:08:54;;;;;;;8.20;3.30;;;;;;;18.98;67.08;101089.50;5074393;28;20477;-78
2023/06/09 06:11:21;;;;;;;7.57;2.30;;;;;;;19.22;60.48;101096.91;5074518;28;20452;-76
2023/06/09 06:13:47;;;;;;;18.70;3.20;;;;;;;19.40;62.95;101095.47;5074271;28;20447;-76
2023/06/09 06:16:15;;;;;;;7.40;2.53;;;;;;;19.52;62.13;101096.56;5069318;28;20466;-76
2023/06/09 06:18:42;;;;;;;7.60;2.50;;;;;;;19.64;61.13;101100.09;5054256;28;20446;-77
2023/06/09 06:21:08;;;;;;;5.77;1.97;;;;;;;19.78;59.65;101096.94;5054296;28;20493;-76
2023/06/09 06:23:35;;;;;;;7.73;2.37;;;;;;;19.91;58.84;101097.69;5054168;28;20442;-76
2023/06/09 06:26:02;;;;;;;7.90;2.70;;;;;;;20.00;57.28;101114.03;5053835;28;20477;-76
2023/06/09 06:28:29;;;;;;;7.83;2.67;;;;;;;20.11;57.79;101098.63;5053756;28;20991;-75
2023/06/09 06:30:56;;;;;;;6.03;2.10;;;;;;;20.23;55.42;101098.56;5054016;28;20442;-76
2023/06/09 06:33:29;;;;;;;7.17;2.10;;;;;;;20.34;57.25;101098.81;5054049;28;20515;-76
2023/06/09 06:35:56;;;;;;;6.00;2.10;;;;;;;20.44;54.47;101097.47;5053988;28;20505;-76
2023/06/09 06:38:22;;;;;;;6.83;2.07;;;;;;;20.51;54.58;101100.47;5053824;28;20511;-76
2023/06/09 06:40:50;;;;;;;7.33;1.40;;;;;;;20.59;53.77;101099.47;5053862;28;20442;-75
2023/06/09 06:43:16;;;;;;;9.67;2.30;;;;;;;20.73;52.65;101110.81;5053515;28;20438;-76
2023/06/09 06:45:43;;;;;;;7.60;2.60;;;;;;;20.84;53.20;101106.34;5053512;28;20817;-75
2023/06/09 06:48:10;;;;;;;6.53;1.83;;;;;;;20.94;53.00;101109.72;5053799;28;20470;-76
2023/06/09 06:50:40;;;;;;;6.63;2.30;;;;;;;21.07;51.75;101108.44;5053881;28;20481;-75
2023/06/09 06:53:07;;;;;;;7.30;2.53;;;;;;;21.17;52.38;101107.91;5053831;28;20442;-75
2023/06/09 06:55:35;;;;;;;5.20;1.50;;;;;;;21.26;52.22;101104.94;5053194;28;20460;-75
2023/06/09 06:58:02;;;;;;;8.93;1.87;;;;;;;21.33;51.12;101108.66;5053458;28;20470;-75
2023/06/09 07:00:29;;;;;;;6.60;1.90;;;;;;;21.42;50.39;101108.44;5053335;28;21050;-75
2023/06/09 07:02:56;;;;;;;5.83;2.03;;;;;;;21.48;50.70;101112.53;5053272;28;20871;-75
2023/06/09 07:05:22;;;;;;;9.77;2.30;;;;;;;21.58;48.22;101116.66;5053121;28;20973;-75
2023/06/09 07:07:50;;;;;;;7.20;1.90;;;;;;;21.65;47.59;101106.56;5053077;28;20528;-75
2023/06/09 07:10:17;;;;;;;6.70;2.53;;;;;;;21.78;47.75;101118.25;5053119;28;20558;-77
2023/06/09 07:12:44;;;;;;;6.50;2.17;;;;;;;21.90;48.71;101117.28;5053097;28;20446;-76
2023/06/09 07:15:10;;;;;;;6.20;1.83;;;;;;;21.98;48.58;101129.25;5053467;28;20477;-76
2023/06/09 07:17:37;;;;;;;9.70;2.33;;;;;;;22.09;47.32;101128.31;5053056;28;20478;-76
2023/06/09 07:20:04;;;;;;;7.20;2.33;;;;;;;22.19;48.12;101126.13;5053072;28;20895;-76
2023/06/09 07:22:33;;;;;;;5.10;1.50;;;;;;;22.27;47.85;101136.09;5053283;28;20971;-76
2023/06/09 07:25:01;;;;;;;8.00;2.03;;;;;;;22.38;48.12;101132.38;5052969;28;20454;-75
2023/06/09 07:27:28;;;;;;;9.90;2.53;;;;;;;22.48;48.74;101130.16;5053235;28;20564;-76
2023/06/09 07:29:55;;;;;;;5.70;1.80;;;;;;;22.54;48.62;101129.50;5052990;28;20854;-76
2023/06/09 07:32:21;;;;;;;6.90;2.30;;;;;;;22.59;47.21;101122.88;5053271;28;20446;-76
2023/06/09 07:34:48;;;;;;;12.30;2.07;;;;;;;22.64;47.43;101122.56;5053218;28;20510;-76
2023/06/09 07:37:14;;;;;;;6.00;2.20;;;;;;;22.72;47.45;101131.75;5053012;28;20497;-76
2023/06/09 07:39:41;;;;;;;7.10;2.50;;;;;;;22.82;47.60;101129.16;5053070;28;20496;-76
2023/06/09 07:42:09;;;;;;;11.20;2.60;;;;;;;22.99;48.13;101127.06;5053225;28;20474;-75
2023/06/09 07:44:36;;;;;;;6.43;2.20;;;;;;;23.08;47.10;101119.31;5053199;28;20545;-76
2023/06/09 07:47:03;;;;;;;5.97;2.20;;;;;;;23.19;47.60;101114.72;5052758;28;20466;-76
2023/06/09 07:49:29;;;;;;;7.90;2.60;;;;;;;23.25;47.23;101118.75;5052521;28;20573;-76
2023/06/09 07:51:56;;;;;;;6.07;2.10;;;;;;;23.38;46.28;101127.63;5053022;28;20446;-76
2023/06/09 07:54:23;;;;;;;9.17;2.63;;;;;;;23.49;46.44;101127.75;5053045;28;20454;-76
2023/06/09 07:56:50;;;;;;;8.37;2.43;;;;;;;23.62;46.75;101126.34;5052682;28;20502;-76
2023/06/09 07:59:18;;;;;;;8.63;2.60;;;;;;;23.74;46.10;101123.34;5052765;28;20938;-77
2023/06/09 08:01:46;;;;;;;7.43;2.50;;;;;;;23.83;46.85;101128.59;5052611;28;20555;-76
2023/06/09 08:04:12;;;;;;;12.03;2.80;;;;;;;23.90;46.31;101132.22;5052951;28;20442;-76
2023/06/09 08:06:39;;;;;;;8.43;2.27;;;;;;;23.98;45.57;101121.22;5055815;28;20577;-76
2023/06/09 08:09:06;;;;;;;6.70;2.97;;;;;;;24.03;45.62;101123.66;5056481;28;20454;-76
2023/06/09 08:11:33;;;;;;;8.73;2.53;;;;;;;24.14;46.26;101124.56;5056669;28;20478;-76
2023/06/09 08:14:00;;;;;;;7.37;1.80;;;;;;;24.19;45.30;101124.22;5056250;28;20466;-76
2023/06/09 08:16:28;;;;;;;7.20;2.43;;;;;;;24.30;45.86;101122.31;5056955;28;20569;-75
2023/06/09 08:18:54;;;;;;;5.57;1.80;;;;;;;24.41;46.47;101128.81;5056565;28;20513;-76
2023/06/09 08:21:22;;;;;;;5.63;1.80;;;;;;;24.53;46.46;101126.94;5056444;28;20434;-76
2023/06/09 08:23:48;;;;;;;6.90;2.40;;;;;;;24.67;47.31;101129.81;5056468;28;20442;-77
2023/06/09 08:26:15;;;;;;;9.30;2.17;;;;;;;24.81;47.13;101129.91;5055941;28;20500;-76
2023/06/09 08:28:42;;;;;;;8.37;2.40;;;;;;;24.97;46.15;101121.31;5055958;28;20438;-76
2023/06/09 08:31:09;;;;;;;6.77;1.90;;;;;;;25.02;45.36;101125.69;5055902;28;20486;-76
2023/06/09 08:33:37;;;;;;;8.47;3.20;;;;;;;25.06;45.45;101118.22;5056297;28;20453;-76
2023/06/09 08:36:04;;;;;;;6.87;2.40;;;;;;;25.10;45.40;101119.84;5056146;28;20896;-77
2023/06/09 08:38:33;;;;;;;5.60;2.17;;;;;;;25.17;45.67;101128.19;5056078;28;20873;-76
2023/06/09 08:41:06;;;;;;;6.20;2.00;;;;;;;25.17;44.43;101124.63;5055785;28;20442;-76
2023/06/09 08:43:33;;;;;;;5.63;1.83;;;;;;;25.25;45.50;101119.91;5055690;28;20431;-76
2023/06/09 08:46:01;;;;;;;7.90;2.10;;;;;;;25.39;45.64;101118.00;5056026;28;20533;-76
2023/06/09 08:48:29;;;;;;;8.33;2.63;;;;;;;25.39;45.23;101122.75;5055663;28;20823;-77
2023/06/09 08:50:58;;;;;;;6.53;2.07;;;;;;;25.62;46.41;101125.22;5055968;28;20493;-76
2023/06/09 08:53:25;;;;;;;6.60;2.30;;;;;;;25.75;44.47;101123.69;5056056;28;20529;-76
2023/06/09 08:55:53;;;;;;;5.70;2.40;;;;;;;25.80;43.13;101126.09;5055519;28;20435;-77
2023/06/09 08:58:21;;;;;;;6.73;2.57;;;;;;;25.87;42.66;101128.91;5055900;28;20434;-77
2023/06/09 09:00:48;;;;;;;5.70;1.63;;;;;;;25.94;43.44;101124.56;5055450;28;20817;-76
2023/06/09 09:03:16;;;;;;;6.43;1.97;;;;;;;25.87;42.16;101134.47;5055426;28;20795;-76
2023/06/09 09:05:43;;;;;;;5.50;2.20;;;;;;;25.96;41.89;101136.88;5055044;28;20978;-76
2023/06/09 09:08:12;;;;;;;9.90;2.77;;;;;;;25.85;42.31;101138.81;5055620;28;20548;-76
2023/06/09 09:10:41;;;;;;;7.40;3.17;;;;;;;25.83;42.01;101143.97;5055279;28;20601;-76
2023/06/09 09:13:09;;;;;;;6.40;2.20;;;;;;;25.76;42.07;101141.13;5055483;28;20537;-76
2023/06/09 09:15:37;;;;;;;6.63;2.10;;;;;;;25.75;42.60;101148.66;5055840;28;20445;-76
2023/06/09 09:18:06;;;;;;;6.60;2.03;;;;;;;25.75;43.56;101143.09;5054554;28;20979;-76
2023/06/09 09:20:34;;;;;;;7.10;2.00;;;;;;;25.73;43.96;101139.94;5055427;28;20975;-76
2023/06/09 09:23:01;;;;;;;5.63;2.03;;;;;;;25.67;42.65;101141.50;5055350;28;21014;-76
2023/06/09 09:25:30;;;;;;;6.37;2.03;;;;;;;25.62;43.04;101144.66;5055530;28;20445;-76
2023/06/09 09:28:04;;;;;;;6.20;2.00;;;;;;;25.58;42.90;101135.50;5055712;28;20474;-76
2023/06/09 09:30:42;;;;;;;7.17;2.03;;;;;;;25.55;44.08;101130.75;5055656;28;20466;-76
2023/06/09 09:33:09;;;;;;;10.50;2.33;;;;;;;25.56;44.72;101126.78;5055781;28;20442;-76
2023/06/09 09:35:38;;;;;;;7.73;2.40;;;;;;;25.69;43.93;101127.25;5055482;28;20438;-76
2023/06/09 09:38:05;;;;;;;6.60;2.30;;;;;;;25.81;45.39;101119.38;5055268;28;20465;-76
2023/06/09 09:40:33;;;;;;;6.00;2.27;;;;;;;26.00;45.56;101126.56;5056652;28;20484;-74
2023/06/09 09:43:02;;;;;;;6.33;2.23;;;;;;;26.17;42.77;101122.25;5056462;28;20480;-74
2023/06/09 09:45:37;;;;;;;5.40;1.90;;;;;;;26.37;43.83;101112.31;5056126;28;20447;-74
2023/06/09 09:48:09;;;;;;;7.10;2.20;;;;;;;26.50;42.79;101114.72;5056355;28;20466;-74
2023/06/09 09:50:37;;;;;;;8.30;2.40;;;;;;;26.74;42.42;101122.28;5054684;28;20475;-74
2023/06/09 09:53:04;;;;;;;7.30;2.60;;;;;;;26.90;41.28;101119.84;5054777;28;20445;-74
2023/06/09 09:55:31;;;;;;;5.37;1.70;;;;;;;27.12;43.29;101125.41;5055051;28;20446;-74
2023/06/09 09:58:04;;;;;;;5.40;1.90;;;;;;;27.44;42.38;101121.72;5054723;28;20615;-74
2023/06/09 10:00:32;;;;;;;7.13;2.37;;;;;;;27.78;42.22;101113.63;5054538;28;20509;-74
2023/06/09 10:03:02;;;;;;;7.60;2.10;;;;;;;28.09;39.78;101120.22;5054664;28;20500;-74
2023/06/09 10:05:31;;;;;;;5.47;2.07;;;;;;;28.33;40.89;101122.03;5054374;28;20954;-74
2023/06/09 10:08:02;;;;;;;6.63;2.63;;;;;;;28.58;40.42;101123.84;5054126;28;20572;-74
2023/06/09 10:10:29;;;;;;;6.10;2.40;;;;;;;28.69;38.42;101124.56;5054248;28;20863;-75
2023/06/09 10:12:57;;;;;;;7.40;2.23;;;;;;;28.48;37.14;101116.38;5054711;28;20477;-74
2023/06/09 10:15:25;;;;;;;10.27;2.50;;;;;;;28.38;39.85;101118.84;5054457;28;20830;-74
2023/06/09 10:17:53;;;;;;;6.80;2.43;;;;;;;28.35;39.93;101124.44;5054648;28;20552;-74
2023/06/09 10:20:21;;;;;;;6.60;2.40;;;;;;;28.32;39.92;101119.63;5054435;28;20532;-74
2023/06/09 10:22:48;;;;;;;9.60;2.90;;;;;;;28.13;38.91;101118.97;5054386;28;20446;-75
2023/06/09 10:25:16;;;;;;;6.13;2.03;;;;;;;27.79;38.76;101121.56;5054268;28;20434;-75
2023/06/09 10:27:43;;;;;;;7.07;2.90;;;;;;;27.73;38.68;101112.06;5054086;28;20576;-75
2023/06/09 10:30:11;;;;;;;6.80;2.77;;;;;;;27.79;39.48;101121.56;5052892;28;20474;-75
2023/06/09 10:32:46;;;;;;;6.60;2.70;;;;;;;27.88;40.72;101107.19;5054099;28;20452;-74
2023/06/09 10:35:17;;;;;;;8.50;3.00;;;;;;;28.02;40.01;101114.69;5054363;28;20433;-74
2023/06/09 10:37:46;;;;;;;5.63;2.33;;;;;;;28.02;42.44;101109.09;5054075;28;20466;-75
2023/06/09 10:40:18;;;;;;;7.40;2.90;;;;;;;27.97;40.71;101115.09;5054175;28;20477;-74
2023/06/09 10:42:56;;;;;;;6.23;2.13;;;;;;;27.82;39.15;101109.63;5053982;28;20534;-75
2023/06/09 10:45:23;;;;;;;7.23;2.53;;;;;;;27.92;39.67;101108.78;5053885;28;20422;-75
2023/06/09 10:47:51;;;;;;;6.60;2.40;;;;;;;28.12;38.51;101106.25;5053383;28;21000;-75
2023/06/09 10:50:23;;;;;;;6.80;2.70;;;;;;;28.10;38.87;101105.06;5053309;28;20861;-75
2023/06/09 10:52:53;;;;;;;7.67;2.37;;;;;;;28.23;39.10;101108.16;5053560;28;20521;-74
2023/06/09 10:55:22;;;;;;;8.47;2.40;;;;;;;28.19;38.50;101105.41;5054069;28;20427;-75
2023/06/09 10:57:50;;;;;;;6.27;2.80;;;;;;;28.35;39.09;101093.78;5053528;28;21040;-76
2023/06/09 11:00:18;;;;;;;5.43;2.03;;;;;;;28.56;37.08;101101.97;5053784;28;20545;-75
2023/06/09 11:02:49;;;;;;;6.70;2.43;;;;;;;28.64;36.49;101094.31;5053259;28;20932;-76
2023/06/09 11:05:18;;;;;;;5.67;1.97;;;;;;;28.77;38.66;101089.00;5053505;28;20437;-75
2023/06/09 11:07:53;;;;;;;5.10;1.60;;;;;;;28.75;38.21;101085.84;5052974;28;20470;-75
2023/06/09 11:10:29;;;;;;;5.70;2.03;;;;;;;29.00;38.44;101091.16;5053448;28;20579;-75
2023/06/09 11:12:57;;;;;;;6.40;2.53;;;;;;;29.18;38.90;101083.41;5053669;28;20444;-75
2023/06/09 11:15:30;;;;;;;6.00;1.83;;;;;;;29.30;35.43;101082.06;5053550;28;20497;-75
2023/06/09 11:17:57;;;;;;;5.40;1.97;;;;;;;29.73;37.80;101087.91;5053409;28;20549;-75
2023/06/09 11:20:25;;;;;;;5.80;2.00;;;;;;;30.25;36.39;101086.75;5053291;28;20927;-75
2023/06/09 11:23:03;;;;;;;7.03;1.90;;;;;;;30.83;34.96;101090.16;5053393;28;20431;-75
2023/06/09 11:25:38;;;;;;;5.63;2.00;;;;;;;31.06;33.09;101089.28;5053466;28;20431;-75